createdAt,value
2023-04-10T00:01:25.780Z,12.65
2023-04-10T00:03:53.930Z,12.73
2023-04-10T00:06:29.872Z,12.85
2023-04-10T00:12:00.772Z,12.60
2023-04-10T00:14:27.395Z,12.18
2023-04-10T00:16:54.080Z,13.93
2023-04-10T00:19:20.760Z,12.30
2023-04-10T00:21:47.435Z,12.40
2023-04-10T00:24:56.767Z,12.55
2023-04-10T00:28:00.644Z,12.15
2023-04-10T00:30:27.384Z,11.85
2023-04-10T00:32:53.978Z,12.98
2023-04-10T00:35:20.698Z,13.43
2023-04-10T00:37:47.287Z,13.18
2023-04-10T00:40:13.977Z,14.35
2023-04-10T00:43:02.437Z,15.90
2023-04-10T00:45:29.262Z,14.80
2023-04-10T00:47:56.720Z,14.07
2023-04-10T00:50:23.868Z,13.60
2023-04-10T00:52:51.807Z,13.23
2023-04-10T01:06:32.658Z,12.10
2023-04-10T01:09:04.335Z,13.45
2023-04-10T01:11:45.396Z,13.50
2023-04-10T01:14:58.917Z,12.07
2023-04-10T01:17:38.999Z,13.10
2023-04-10T01:20:13.430Z,13.55
2023-04-10T01:27:18.229Z,12.98
2023-04-10T01:32:20.614Z,12.60
2023-04-10T01:34:51.112Z,12.50
2023-04-10T01:37:24.585Z,13.45
2023-04-10T01:39:59.019Z,13.38
2023-04-10T01:45:02.034Z,12.90
2023-04-10T01:47:29.091Z,12.98
2023-04-10T01:49:57.777Z,12.40
2023-04-10T01:59:00.226Z,12.23
2023-04-10T02:01:30.055Z,12.35
2023-04-10T02:03:58.494Z,13.10
2023-04-10T02:06:26.091Z,12.27
2023-04-10T02:09:24.783Z,12.57
2023-04-10T02:12:18.616Z,12.10
2023-04-10T02:14:47.388Z,13.15
2023-04-10T02:17:23.559Z,12.52
2023-04-10T02:19:53.278Z,12.35
2023-04-10T02:28:39.976Z,11.82
2023-04-10T02:31:07.381Z,12.80
2023-04-10T02:33:34.090Z,13.20
2023-04-10T02:36:01.530Z,11.93
2023-04-10T02:38:28.169Z,12.02
2023-04-10T02:40:54.762Z,12.25
2023-04-10T02:43:21.418Z,12.65
2023-04-10T02:45:48.030Z,12.55
2023-04-10T02:48:14.849Z,12.32
2023-04-10T02:50:46.139Z,11.70
2023-04-10T02:53:16.888Z,12.27
2023-04-10T02:55:43.493Z,12.45
2023-04-10T03:02:03.797Z,12.32
2023-04-10T03:04:38.646Z,11.68
2023-04-10T03:07:05.638Z,13.10
2023-04-10T03:09:32.205Z,12.52
2023-04-10T03:12:20.701Z,11.50
2023-04-10T03:14:47.432Z,13.18
2023-04-10T03:17:14.061Z,13.02
2023-04-10T03:19:40.883Z,12.25
2023-04-10T03:22:07.619Z,12.95
2023-04-10T03:24:34.438Z,12.10
2023-04-10T03:29:43.095Z,13.23
2023-04-10T03:32:09.648Z,12.18
2023-04-10T03:34:36.667Z,13.05
2023-04-10T03:37:27.717Z,13.25
2023-04-10T03:43:13.504Z,12.85
2023-04-10T03:45:43.098Z,13.25
2023-04-10T03:48:20.450Z,12.98
2023-04-10T03:50:56.962Z,12.20
2023-04-10T03:58:45.158Z,12.68
2023-04-10T04:25:10.977Z,13.05
2023-04-10T04:30:19.502Z,13.15
2023-04-10T04:32:46.129Z,12.75
2023-04-10T04:35:12.719Z,13.25
2023-04-10T04:37:39.310Z,14.30
2023-04-10T04:40:06.382Z,13.25
2023-04-10T04:47:49.524Z,12.65
2023-04-10T04:50:16.387Z,13.85
2023-04-10T04:52:44.260Z,13.10
2023-04-10T04:55:10.907Z,14.55
2023-04-10T04:57:56.243Z,12.95
2023-04-10T05:00:23.163Z,14.52
2023-04-10T05:02:52.794Z,14.43
2023-04-10T05:05:19.554Z,14.85
2023-04-10T05:07:48.744Z,15.40
2023-04-10T05:13:17.434Z,16.10
2023-04-10T05:15:45.085Z,15.00
2023-04-10T05:18:13.763Z,15.20
2023-04-10T05:20:40.643Z,15.85
2023-04-10T05:27:06.912Z,15.25
2023-04-10T05:29:33.675Z,13.45
2023-04-10T05:32:00.336Z,12.93
2023-04-10T05:34:26.915Z,13.27
2023-04-10T05:36:53.728Z,14.10
2023-04-10T05:39:20.592Z,12.98
2023-04-10T05:42:05.850Z,12.32
2023-04-10T05:44:32.429Z,12.90
2023-04-10T05:46:59.025Z,11.02
2023-04-10T05:49:25.693Z,11.80
2023-04-10T05:55:28.703Z,11.52
2023-04-10T05:57:55.314Z,10.90
2023-04-10T06:00:22.020Z,11.18
2023-04-10T06:07:59.189Z,11.60
2023-04-10T06:10:57.334Z,12.73
2023-04-10T06:13:47.372Z,13.68
2023-04-10T06:29:43.602Z,12.73
2023-04-10T06:32:13.151Z,12.45
2023-04-10T06:34:39.720Z,10.95
2023-04-10T06:37:06.346Z,7.70
2023-04-10T06:39:33.160Z,7.43
2023-04-10T06:42:20.427Z,7.32
2023-04-10T06:44:46.981Z,7.65
2023-04-10T06:47:13.779Z,7.55
2023-04-10T06:49:40.399Z,7.35
2023-04-10T06:56:09.354Z,7.53
2023-04-10T06:58:36.011Z,7.22
2023-04-10T07:01:04.739Z,7.20
2023-04-10T07:03:32.608Z,7.70
2023-04-10T07:05:59.889Z,7.35
2023-04-10T07:08:26.490Z,7.55
2023-04-10T07:10:53.176Z,8.23
2023-04-10T07:13:19.768Z,7.57
2023-04-10T07:15:46.664Z,8.43
2023-04-10T07:18:13.304Z,8.10
2023-04-10T07:20:40.165Z,8.25
2023-04-10T07:23:06.989Z,8.27
2023-04-10T07:25:34.077Z,8.68
2023-04-10T07:28:03.512Z,8.75
2023-04-10T07:30:30.398Z,8.63
2023-04-10T07:38:35.702Z,9.13
2023-04-10T07:41:02.652Z,9.50
2023-04-10T07:43:29.882Z,8.45
2023-04-10T07:45:56.948Z,8.60
2023-04-10T07:48:23.874Z,8.63
2023-04-10T07:50:50.452Z,7.97
2023-04-10T07:53:17.116Z,7.65
2023-04-10T07:55:47.542Z,8.43
2023-04-10T07:58:17.190Z,7.87
2023-04-10T08:00:43.818Z,7.55
2023-04-10T08:03:15.954Z,7.55
2023-04-10T08:05:42.727Z,8.30
2023-04-10T08:08:09.326Z,7.53
2023-04-10T08:10:39.402Z,6.82
2023-04-10T08:13:06.324Z,6.40
2023-04-10T08:15:38.159Z,6.80
2023-04-10T08:18:08.041Z,6.20
2023-04-10T08:20:37.094Z,5.90
2023-04-10T08:25:53.728Z,6.57
2023-04-10T08:28:21.353Z,7.15
2023-04-10T08:30:47.984Z,7.72
2023-04-10T08:33:14.610Z,8.05
2023-04-10T08:35:41.292Z,7.62
2023-04-10T08:38:13.420Z,8.35
2023-04-10T08:40:41.589Z,8.23
2023-04-10T08:43:08.195Z,7.05
2023-04-10T08:45:34.735Z,7.37
2023-04-10T08:48:06.464Z,7.25
2023-04-10T08:50:36.202Z,7.72
2023-04-10T08:53:10.884Z,7.28
2023-04-10T08:55:38.974Z,6.95
2023-04-10T08:58:06.105Z,6.32
2023-04-10T09:00:38.579Z,6.50
2023-04-10T09:03:11.771Z,6.72
2023-04-10T09:05:38.659Z,6.70
2023-04-10T09:08:07.251Z,6.60
2023-04-10T09:10:48.357Z,5.85
2023-04-10T09:13:14.905Z,6.12
2023-04-10T09:15:59.008Z,5.95
2023-04-10T09:18:45.532Z,6.00
2023-04-10T09:25:28.655Z,5.95
2023-04-10T09:28:09.781Z,5.25
2023-04-10T09:30:42.410Z,5.78
2023-04-10T09:33:30.146Z,5.43
2023-04-10T09:35:59.939Z,6.55
2023-04-10T09:38:26.989Z,6.10
2023-04-10T09:41:14.137Z,5.72
2023-04-10T09:43:43.431Z,6.35
2023-04-10T09:46:10.030Z,5.53
2023-04-10T09:48:36.702Z,6.40
2023-04-10T09:51:45.133Z,6.00
2023-04-10T09:54:37.066Z,6.18
2023-04-10T09:57:05.637Z,5.35
2023-04-10T09:59:32.785Z,5.70
2023-04-10T10:01:59.469Z,5.53
2023-04-10T10:04:27.151Z,5.28
2023-04-10T10:06:54.349Z,5.45
2023-04-10T10:09:44.223Z,5.50
2023-04-10T10:12:12.794Z,5.60
2023-04-10T10:14:57.347Z,4.53
2023-04-10T10:17:29.656Z,5.10
2023-04-10T10:20:35.416Z,5.30
2023-04-10T10:23:25.861Z,5.00
2023-04-10T10:25:54.721Z,5.93
2023-04-10T10:28:21.705Z,5.62
2023-04-10T10:30:51.646Z,6.28
2023-04-10T10:33:18.925Z,6.35
2023-04-10T10:35:46.839Z,5.40
2023-04-10T10:41:15.403Z,5.85
2023-04-10T10:43:54.763Z,5.97
2023-04-10T10:46:36.422Z,5.75
2023-04-10T10:49:03.051Z,5.50
2023-04-10T10:51:51.720Z,5.60
2023-04-10T10:55:20.921Z,5.82
2023-04-10T10:58:11.087Z,5.25
2023-04-10T11:00:52.854Z,5.50
2023-04-10T11:03:19.536Z,5.55
2023-04-10T11:05:54.214Z,5.53
2023-04-10T11:08:33.628Z,6.00
2023-04-10T11:11:09.616Z,5.87
2023-04-10T11:16:43.859Z,5.75
2023-04-10T11:19:19.001Z,5.70
2023-04-10T11:22:08.361Z,6.25
2023-04-10T11:24:56.270Z,5.53
2023-04-10T11:27:41.831Z,6.55
2023-04-10T11:31:04.886Z,6.20
2023-04-10T11:45:28.291Z,6.55
2023-04-10T11:48:13.036Z,6.57
2023-04-10T11:50:39.648Z,6.20
2023-04-10T11:53:19.036Z,5.90
2023-04-10T11:55:46.706Z,5.85
2023-04-10T11:59:09.956Z,6.37
2023-04-10T12:02:15.937Z,5.82
2023-04-10T12:04:44.216Z,5.90
2023-04-10T12:07:11.602Z,6.30
2023-04-10T12:09:38.544Z,6.60
2023-04-10T12:12:07.276Z,5.82
2023-04-10T12:14:41.845Z,5.70
2023-04-10T12:17:23.723Z,5.35
2023-04-10T12:19:50.378Z,5.50
2023-04-10T12:22:17.156Z,5.70
2023-04-10T12:24:45.071Z,5.40
2023-04-10T12:27:19.109Z,5.93
2023-04-10T12:30:17.127Z,5.25
2023-04-10T12:33:04.577Z,5.20
2023-04-10T12:35:44.109Z,5.28
2023-04-10T12:38:10.810Z,5.05
2023-04-10T12:40:38.558Z,4.43
2023-04-10T12:43:05.442Z,5.82
2023-04-10T12:45:45.091Z,5.53
2023-04-10T12:48:23.757Z,5.47
2023-04-10T12:50:50.602Z,5.40
2023-04-10T12:53:17.213Z,5.95
2023-04-10T12:56:03.575Z,5.32
2023-04-10T12:58:46.315Z,5.05
2023-04-10T13:01:39.036Z,6.50
2023-04-10T13:04:05.875Z,6.05
2023-04-10T13:06:32.853Z,5.55
2023-04-10T13:08:59.424Z,5.50
2023-04-10T13:11:25.965Z,5.07
2023-04-10T13:13:52.769Z,5.50
2023-04-10T13:16:38.224Z,5.32
2023-04-10T13:19:05.206Z,4.68
2023-04-10T13:21:31.939Z,5.05
2023-04-10T13:23:58.521Z,4.50
2023-04-10T13:26:25.357Z,4.05
2023-04-10T13:29:29.623Z,4.25
2023-04-10T13:32:06.050Z,4.28
2023-04-10T13:34:33.842Z,4.32
2023-04-10T13:37:00.966Z,4.30
2023-04-10T13:39:31.866Z,4.15
2023-04-10T13:41:59.656Z,4.03
2023-04-10T13:44:26.659Z,4.10
2023-04-10T13:49:31.014Z,3.83
2023-04-10T13:51:58.113Z,4.35
2023-04-10T13:54:24.774Z,4.10
2023-04-10T13:57:35.352Z,4.50
2023-04-10T14:00:36.358Z,4.30
2023-04-10T14:03:03.285Z,4.15
2023-04-10T14:05:30.018Z,3.95
2023-04-10T14:07:57.098Z,4.30
2023-04-10T14:10:24.335Z,6.10
2023-04-10T14:12:51.151Z,4.75
2023-04-10T14:18:05.878Z,4.40
2023-04-10T14:20:32.482Z,3.97
2023-04-10T14:22:59.085Z,4.03
2023-04-10T14:29:25.458Z,4.10
2023-04-10T14:32:15.472Z,3.75
2023-04-10T14:37:08.492Z,3.95
2023-04-10T14:39:35.473Z,4.15
2023-04-10T14:42:02.641Z,4.30
2023-04-10T14:44:30.007Z,4.70
2023-04-10T14:46:56.688Z,4.90
2023-04-10T14:49:23.428Z,4.37
2023-04-10T14:51:50.437Z,4.10
2023-04-10T14:54:17.182Z,4.10
2023-04-10T14:57:32.009Z,4.55
2023-04-10T15:00:33.033Z,4.15
2023-04-10T15:03:00.389Z,4.07
2023-04-10T15:05:27.736Z,4.03
2023-04-10T15:07:55.084Z,4.03
2023-04-10T15:10:21.891Z,4.60
2023-04-10T15:12:48.497Z,5.25
2023-04-10T15:15:33.703Z,4.60
2023-04-10T15:18:00.484Z,4.28
2023-04-10T15:20:27.083Z,4.93
2023-04-10T15:22:53.747Z,4.87
2023-04-10T15:29:32.326Z,4.37
2023-04-10T15:32:01.888Z,4.43
2023-04-10T15:34:28.513Z,4.35
2023-04-10T15:36:55.132Z,5.20
2023-04-10T15:39:24.252Z,5.30
2023-04-10T15:41:50.873Z,4.68
2023-04-10T15:47:12.955Z,4.32
2023-04-10T15:49:39.521Z,5.18
2023-04-10T15:52:07.031Z,4.30
2023-04-10T15:54:35.136Z,4.05
2023-04-10T15:57:02.343Z,4.05
2023-04-10T15:59:30.335Z,4.62
2023-04-10T16:02:55.841Z,4.25
2023-04-10T16:05:41.424Z,4.80
2023-04-10T16:08:08.022Z,5.57
2023-04-10T16:10:35.957Z,5.95
2023-04-10T16:13:05.077Z,4.95
2023-04-10T16:15:34.676Z,4.47
2023-04-10T16:18:01.387Z,5.22
2023-04-10T16:20:46.544Z,4.85
2023-04-10T16:23:13.150Z,4.53
2023-04-10T16:25:39.770Z,4.55
2023-04-10T16:28:08.104Z,4.40
2023-04-10T16:34:27.616Z,5.35
2023-04-10T16:36:54.876Z,5.10
2023-04-10T16:39:21.489Z,26.67
2023-04-10T16:41:48.091Z,9.40
2023-04-10T16:44:14.693Z,14.52
2023-04-10T16:46:41.450Z,15.38
2023-04-10T16:49:08.054Z,7.80
2023-04-10T16:51:34.676Z,7.68
2023-04-10T16:54:01.283Z,5.43
2023-04-10T16:56:27.822Z,5.43
2023-04-10T16:58:54.777Z,4.85
2023-04-10T17:01:26.202Z,6.32
2023-04-10T17:03:54.272Z,6.32
2023-04-10T17:06:21.169Z,6.15
2023-04-10T17:08:48.224Z,6.80
2023-04-10T17:11:14.955Z,8.13
2023-04-10T17:13:41.753Z,7.78
2023-04-10T17:16:09.872Z,7.43
2023-04-10T17:18:37.163Z,6.28
2023-04-10T17:21:04.017Z,6.30
2023-04-10T17:23:30.660Z,6.65
2023-04-10T17:25:57.233Z,6.93
2023-04-10T17:28:23.870Z,6.87
2023-04-10T17:30:50.568Z,6.97
2023-04-10T17:33:17.175Z,6.65
2023-04-10T17:35:43.937Z,6.70
2023-04-10T17:38:10.608Z,7.03
2023-04-10T17:40:38.463Z,6.72
2023-04-10T17:43:05.071Z,6.18
2023-04-10T17:45:31.718Z,6.80
2023-04-10T17:47:58.462Z,6.57
2023-04-10T17:50:26.002Z,7.00
2023-04-10T17:52:52.971Z,7.65
2023-04-10T17:55:20.686Z,7.72
2023-04-10T17:57:48.951Z,7.30
2023-04-10T18:00:20.052Z,7.28
2023-04-10T18:02:48.359Z,8.30
2023-04-10T18:05:15.350Z,8.07
2023-04-10T18:07:41.988Z,8.70
2023-04-10T18:10:11.422Z,8.32
2023-04-10T18:12:38.226Z,7.97
2023-04-10T18:15:05.537Z,9.93
2023-04-10T18:17:32.210Z,8.82
2023-04-10T18:19:59.050Z,9.95
2023-04-10T18:22:25.691Z,7.40
2023-04-10T18:24:52.331Z,6.20
2023-04-10T18:27:18.974Z,6.87
2023-04-10T18:29:51.306Z,6.22
2023-04-10T18:32:20.550Z,9.82
2023-04-10T18:34:47.448Z,8.68
2023-04-10T18:37:14.463Z,6.68
2023-04-10T18:39:41.382Z,7.37
2023-04-10T18:42:12.580Z,6.72
2023-04-10T18:44:39.431Z,6.35
2023-04-10T18:47:06.355Z,6.00
2023-04-10T18:49:33.046Z,6.55
2023-04-10T18:52:00.299Z,6.30
2023-04-10T18:54:29.672Z,6.22
2023-04-10T18:56:59.012Z,6.25
2023-04-10T18:59:27.284Z,6.22
2023-04-10T19:01:54.154Z,5.90
2023-04-10T19:04:21.160Z,7.07
2023-04-10T19:06:47.880Z,6.40
2023-04-10T19:09:14.721Z,6.97
2023-04-10T19:11:44.739Z,6.82
2023-04-10T19:14:11.314Z,6.28
2023-04-10T19:16:39.151Z,6.93
2023-04-10T19:19:06.031Z,6.47
2023-04-10T19:21:34.423Z,7.03
2023-04-10T19:24:00.997Z,6.22
2023-04-10T19:26:27.700Z,6.00
2023-04-10T19:28:55.127Z,6.53
2023-04-10T19:31:23.546Z,5.93
2023-04-10T19:33:50.195Z,6.07
2023-04-10T19:36:18.640Z,6.20
2023-04-10T19:38:48.650Z,5.97
2023-04-10T19:41:15.735Z,5.82
2023-04-10T19:43:42.735Z,6.25
2023-04-10T19:46:17.405Z,5.87
2023-04-10T19:48:44.100Z,6.78
2023-04-10T19:51:10.868Z,6.28
2023-04-10T19:53:38.213Z,7.68
2023-04-10T19:56:05.521Z,7.20
2023-04-10T19:58:40.651Z,8.18
2023-04-10T20:01:19.065Z,8.10
2023-04-10T20:03:45.914Z,7.20
2023-04-10T20:06:13.085Z,7.80
2023-04-10T20:08:39.777Z,7.45
2023-04-10T20:11:06.819Z,8.07
2023-04-10T20:13:34.946Z,7.72
2023-04-10T20:16:02.081Z,7.75
2023-04-10T20:18:28.773Z,8.05
2023-04-10T20:20:55.428Z,7.93
2023-04-10T20:23:22.029Z,7.62
2023-04-10T20:25:48.628Z,8.02
2023-04-10T20:28:16.867Z,8.43
2023-04-10T20:30:44.074Z,8.27
2023-04-10T20:33:11.548Z,8.63
2023-04-10T20:35:38.318Z,8.40
2023-04-10T20:38:05.158Z,9.82
2023-04-10T20:40:31.829Z,11.43
2023-04-10T20:42:58.409Z,11.95
2023-04-10T20:45:24.985Z,11.10
2023-04-10T20:47:51.733Z,10.95
2023-04-10T20:50:18.740Z,9.82
2023-04-10T20:52:45.434Z,10.40
2023-04-10T20:55:12.182Z,9.45
2023-04-10T20:57:38.750Z,9.10
2023-04-10T21:00:05.988Z,9.30
2023-04-10T21:02:32.689Z,9.85
2023-04-10T21:05:20.712Z,9.45
2023-04-10T21:08:21.192Z,8.48
2023-04-10T21:10:47.754Z,8.95
2023-04-10T21:13:15.149Z,9.10
2023-04-10T21:15:43.209Z,9.55
2023-04-10T21:18:10.316Z,9.48
2023-04-10T21:20:37.059Z,9.00
2023-04-10T21:23:25.446Z,9.77
2023-04-10T21:25:54.965Z,8.80
2023-04-10T21:28:21.578Z,9.48
2023-04-10T21:30:48.248Z,8.73
2023-04-10T21:34:10.983Z,10.00
2023-04-10T21:39:49.983Z,8.95
2023-04-10T21:42:18.433Z,10.00
2023-04-10T21:44:45.046Z,14.87
2023-04-10T21:47:11.624Z,14.55
2023-04-10T21:49:40.544Z,17.80
2023-04-10T21:52:07.180Z,13.73
2023-04-10T21:54:33.729Z,11.07
2023-04-10T21:57:00.304Z,10.50
2023-04-10T21:59:27.141Z,10.57
2023-04-10T22:01:53.778Z,10.70
2023-04-10T22:04:20.596Z,10.40
2023-04-10T22:06:47.200Z,11.95
2023-04-10T22:09:14.182Z,13.40
2023-04-10T22:11:41.064Z,12.52
2023-04-10T22:14:15.388Z,10.85
2023-04-10T22:16:43.986Z,11.95
2023-04-10T22:22:32.898Z,12.13
2023-04-10T22:24:59.629Z,11.95
2023-04-10T22:27:26.236Z,11.85
2023-04-10T22:30:02.057Z,12.25
2023-04-10T22:32:30.424Z,13.27
2023-04-10T22:34:58.861Z,13.25
2023-04-10T22:37:26.005Z,13.10
2023-04-10T22:39:52.862Z,13.60
2023-04-10T22:42:19.489Z,12.63
2023-04-10T22:44:46.067Z,13.62
2023-04-10T22:47:12.688Z,14.38
2023-04-10T22:49:39.353Z,14.63
2023-04-10T22:52:08.558Z,13.77
2023-04-10T22:54:35.153Z,13.93
2023-04-10T22:57:01.685Z,14.05
2023-04-10T22:59:28.235Z,14.25
2023-04-10T23:01:54.869Z,14.52
2023-04-10T23:04:21.549Z,14.43
2023-04-10T23:06:48.201Z,16.10
2023-04-10T23:09:14.797Z,13.75
2023-04-10T23:11:41.413Z,15.13
2023-04-10T23:14:08.098Z,15.55
2023-04-10T23:16:34.756Z,15.07
2023-04-10T23:19:01.429Z,16.52
2023-04-10T23:21:27.972Z,15.93
2023-04-10T23:23:54.580Z,14.95
2023-04-10T23:26:21.223Z,14.70
2023-04-10T23:28:48.084Z,15.75
2023-04-10T23:31:15.894Z,14.98
2023-04-10T23:33:42.536Z,14.85
2023-04-10T23:36:09.378Z,15.75
2023-04-10T23:38:36.326Z,15.07
2023-04-10T23:41:03.164Z,16.08
2023-04-10T23:43:29.912Z,16.10
2023-04-10T23:45:56.492Z,15.30
2023-04-10T23:48:23.101Z,16.00
2023-04-10T23:50:49.911Z,16.73
2023-04-10T23:53:16.951Z,15.98
2023-04-10T23:55:43.639Z,14.82
2023-04-10T23:58:10.565Z,16.33
